createdAt,value
2018-12-18T00:00:49.638Z,77.38
2018-12-18T00:03:17.873Z,77.64
2018-12-18T00:05:45.990Z,76.90
2018-12-18T00:08:14.179Z,77.42
2018-12-18T00:10:51.879Z,77.17
2018-12-18T00:13:20.090Z,78.07
2018-12-18T00:15:48.393Z,77.33
2018-12-18T00:18:16.548Z,78.29
2018-12-18T00:20:44.722Z,78.36
2018-12-18T00:23:12.869Z,78.21
2018-12-18T00:25:41.001Z,78.36
2018-12-18T00:28:09.285Z,78.26
2018-12-18T00:30:38.134Z,78.39
2018-12-18T00:33:06.134Z,77.88
2018-12-18T00:35:34.251Z,77.93
2018-12-18T00:38:02.482Z,77.36
2018-12-18T00:40:30.641Z,77.96
2018-12-18T00:42:58.799Z,77.51
2018-12-18T00:45:33.890Z,77.88
2018-12-18T00:48:02.239Z,77.79
2018-12-18T00:50:30.363Z,78.57
2018-12-18T00:52:58.501Z,78.28
2018-12-18T00:55:26.607Z,77.99
2018-12-18T00:57:54.951Z,77.68
2018-12-18T01:00:23.389Z,78.44
2018-12-18T01:02:54.764Z,78.32
2018-12-18T01:05:23.158Z,78.17
2018-12-18T01:07:53.474Z,77.89
2018-12-18T01:10:21.642Z,77.93
2018-12-18T01:12:49.847Z,78.26
2018-12-18T01:15:18.164Z,78.00
2018-12-18T01:17:46.323Z,77.67
2018-12-18T01:20:14.804Z,77.70
2018-12-18T01:22:42.918Z,78.56
2018-12-18T01:25:11.089Z,78.41
2018-12-18T01:27:39.258Z,78.12
2018-12-18T01:30:07.636Z,78.28
2018-12-18T01:32:35.720Z,78.75
2018-12-18T01:35:04.843Z,79.63
2018-12-18T01:37:32.999Z,79.02
2018-12-18T01:40:01.287Z,79.33
2018-12-18T01:42:29.429Z,79.69
2018-12-18T01:44:57.525Z,80.01
2018-12-18T01:47:25.726Z,80.13
2018-12-18T01:49:54.128Z,80.83
2018-12-18T01:52:22.299Z,80.78
2018-12-18T01:54:50.447Z,81.20
2018-12-18T01:57:18.597Z,81.58
2018-12-18T01:59:47.165Z,82.41
2018-12-18T02:02:16.261Z,82.18
2018-12-18T02:04:44.600Z,82.70
2018-12-18T02:07:12.810Z,82.11
2018-12-18T02:09:41.109Z,82.67
2018-12-18T02:12:09.403Z,82.29
2018-12-18T02:14:37.651Z,82.15
2018-12-18T02:17:06.155Z,82.25
2018-12-18T02:19:34.304Z,81.66
2018-12-18T02:22:02.466Z,82.17
2018-12-18T02:24:30.830Z,81.75
2018-12-18T02:26:58.945Z,82.00
2018-12-18T02:29:27.368Z,82.45
2018-12-18T02:31:55.469Z,82.43
2018-12-18T02:34:23.864Z,82.14
2018-12-18T02:36:52.055Z,82.69
2018-12-18T02:39:20.419Z,83.19
2018-12-18T02:41:48.816Z,82.89
2018-12-18T02:44:16.986Z,83.30
2018-12-18T02:46:45.330Z,83.31
2018-12-18T02:49:14.118Z,83.60
2018-12-18T02:51:42.470Z,82.81
2018-12-18T02:54:10.780Z,83.17
2018-12-18T02:56:39.132Z,82.36
2018-12-18T02:59:07.370Z,82.20
2018-12-18T03:01:35.582Z,83.10
2018-12-18T03:04:03.898Z,82.68
2018-12-18T03:06:32.108Z,83.10
2018-12-18T03:09:00.294Z,83.32
2018-12-18T03:11:28.661Z,83.10
2018-12-18T03:13:56.780Z,83.62
2018-12-18T03:16:25.155Z,83.27
2018-12-18T03:18:53.300Z,82.90
2018-12-18T03:21:21.448Z,83.04
2018-12-18T03:23:49.683Z,83.51
2018-12-18T03:26:18.068Z,83.48
2018-12-18T03:28:48.161Z,82.56
2018-12-18T03:31:16.878Z,82.23
2018-12-18T03:33:45.088Z,83.11
2018-12-18T03:36:19.989Z,82.35
2018-12-18T03:38:48.250Z,81.92
2018-12-18T03:41:16.730Z,81.69
2018-12-18T03:43:45.006Z,81.52
2018-12-18T03:46:13.310Z,81.18
2018-12-18T03:48:41.441Z,81.41
2018-12-18T03:51:10.524Z,81.91
2018-12-18T03:53:38.649Z,81.51
2018-12-18T03:56:06.873Z,80.92
2018-12-18T03:58:35.053Z,81.67
2018-12-18T04:01:03.409Z,81.09
2018-12-18T04:03:31.520Z,81.52
2018-12-18T04:05:59.961Z,81.24
2018-12-18T04:08:29.873Z,81.87
2018-12-18T04:10:58.279Z,81.77
2018-12-18T04:13:26.607Z,81.05
2018-12-18T04:15:54.909Z,81.40
2018-12-18T04:18:23.187Z,81.38
2018-12-18T04:20:51.307Z,81.78
2018-12-18T04:23:19.377Z,81.60
2018-12-18T04:25:47.858Z,81.10
2018-12-18T04:28:16.306Z,80.35
2018-12-18T04:30:44.616Z,81.29
2018-12-18T04:33:12.708Z,81.67
2018-12-18T04:35:41.016Z,81.31
2018-12-18T04:38:09.177Z,81.11
2018-12-18T04:40:37.390Z,81.07
2018-12-18T04:43:05.695Z,81.30
2018-12-18T04:45:33.800Z,81.02
2018-12-18T04:48:02.154Z,80.73
2018-12-18T04:50:30.365Z,81.12
2018-12-18T04:52:58.462Z,81.78
2018-12-18T04:55:26.614Z,82.39
2018-12-18T04:57:54.755Z,81.60
2018-12-18T05:00:22.895Z,81.61
2018-12-18T05:02:57.881Z,81.74
2018-12-18T05:05:26.035Z,81.08
2018-12-18T05:07:54.158Z,81.53
2018-12-18T05:10:22.301Z,81.67
2018-12-18T05:12:50.612Z,81.42
2018-12-18T05:15:18.681Z,82.13
2018-12-18T05:17:46.990Z,81.51
2018-12-18T05:20:15.174Z,81.75
2018-12-18T05:22:43.307Z,82.79
2018-12-18T05:25:12.130Z,83.31
2018-12-18T05:27:40.468Z,82.69
2018-12-18T05:30:08.930Z,82.03
2018-12-18T05:32:37.146Z,81.99
2018-12-18T05:35:05.424Z,81.56
2018-12-18T05:37:33.533Z,81.41
2018-12-18T05:40:01.687Z,81.29
2018-12-18T05:42:30.013Z,81.47
2018-12-18T05:44:58.142Z,82.20
2018-12-18T05:47:26.826Z,81.70
2018-12-18T05:49:55.000Z,81.01
2018-12-18T05:52:23.143Z,81.43
2018-12-18T05:54:51.480Z,81.47
2018-12-18T05:57:19.695Z,80.78
2018-12-18T05:59:48.008Z,81.38
2018-12-18T06:02:16.391Z,81.20
2018-12-18T06:04:44.816Z,80.59
2018-12-18T06:07:13.513Z,81.07
2018-12-18T06:09:41.629Z,81.41
2018-12-18T06:12:09.904Z,80.66
2018-12-18T06:14:38.007Z,80.90
2018-12-18T06:17:06.140Z,81.41
2018-12-18T06:19:34.187Z,82.03
2018-12-18T06:22:02.456Z,81.90
2018-12-18T06:24:30.582Z,80.88
2018-12-18T06:26:58.769Z,81.00
2018-12-18T06:29:27.233Z,80.89
2018-12-18T06:34:41.032Z,80.85
2018-12-18T06:37:09.163Z,81.03
2018-12-18T06:39:38.379Z,81.19
2018-12-18T06:42:06.533Z,81.39
2018-12-18T06:44:34.722Z,80.46
2018-12-18T06:47:02.923Z,80.46
2018-12-18T06:49:31.432Z,80.46
2018-12-18T06:51:59.538Z,80.35
2018-12-18T06:54:28.692Z,80.53
2018-12-18T06:56:56.872Z,80.06
2018-12-18T06:59:25.199Z,80.36
2018-12-18T07:01:53.296Z,80.37
2018-12-18T07:04:22.632Z,80.85
2018-12-18T07:06:51.004Z,80.81
2018-12-18T07:09:19.438Z,80.59
2018-12-18T07:11:47.637Z,80.23
2018-12-18T07:14:15.786Z,79.87
2018-12-18T07:16:43.968Z,79.24
2018-12-18T07:19:12.071Z,80.01
2018-12-18T07:21:41.419Z,80.02
2018-12-18T07:24:14.077Z,79.26
2018-12-18T07:26:39.758Z,79.45
2018-12-18T07:29:08.070Z,78.92
2018-12-18T07:31:36.199Z,79.70
2018-12-18T07:34:04.446Z,79.95
2018-12-18T07:36:32.605Z,79.31
2018-12-18T07:39:00.690Z,79.82
2018-12-18T07:41:28.893Z,79.45
2018-12-18T07:43:57.037Z,80.23
2018-12-18T07:46:25.219Z,79.58
2018-12-18T07:48:53.840Z,80.10
2018-12-18T07:51:22.084Z,80.16
2018-12-18T07:53:50.207Z,79.29
2018-12-18T07:56:18.309Z,79.61
2018-12-18T07:58:46.534Z,79.22
2018-12-18T08:01:14.735Z,79.32
2018-12-18T08:03:42.872Z,79.20
2018-12-18T08:06:11.025Z,78.05
2018-12-18T08:08:39.143Z,77.96
2018-12-18T08:11:07.851Z,77.49
2018-12-18T08:13:35.981Z,78.03
2018-12-18T08:16:04.384Z,77.73
2018-12-18T08:18:32.562Z,77.95
2018-12-18T08:21:00.826Z,77.08
2018-12-18T08:23:29.017Z,77.37
2018-12-18T08:25:57.277Z,77.12
2018-12-18T08:28:25.407Z,77.30
2018-12-18T08:30:53.714Z,77.64
2018-12-18T08:33:21.822Z,76.88
2018-12-18T08:35:50.191Z,77.46
2018-12-18T08:38:18.336Z,76.45
2018-12-18T08:40:46.459Z,76.54
2018-12-18T08:43:14.666Z,75.64
2018-12-18T08:45:42.985Z,76.60
2018-12-18T08:48:11.118Z,75.59
2018-12-18T08:50:40.134Z,75.89
2018-12-18T08:53:08.360Z,76.50
2018-12-18T08:55:36.779Z,75.54
2018-12-18T08:58:04.943Z,76.39
2018-12-18T09:00:33.402Z,75.99
2018-12-18T09:03:01.534Z,75.45
2018-12-18T09:05:29.957Z,75.53
2018-12-18T09:07:58.038Z,74.78
2018-12-18T09:10:26.246Z,75.65
2018-12-18T09:12:55.169Z,74.77
2018-12-18T09:15:28.930Z,74.16
2018-12-18T09:17:57.144Z,74.21
2018-12-18T09:20:25.440Z,73.83
2018-12-18T09:22:53.582Z,73.62
2018-12-18T09:25:22.184Z,73.90
2018-12-18T09:27:50.422Z,74.35
2018-12-18T09:30:18.576Z,73.88
2018-12-18T09:32:46.898Z,73.74
2018-12-18T09:35:15.054Z,73.55
2018-12-18T09:37:43.248Z,72.85
2018-12-18T09:40:11.479Z,73.00
2018-12-18T09:42:45.528Z,72.62
2018-12-18T09:45:13.890Z,72.42
2018-12-18T09:47:42.038Z,73.12
2018-12-18T09:50:10.641Z,71.68
2018-12-18T09:52:38.720Z,71.46
2018-12-18T09:55:08.072Z,70.69
2018-12-18T09:57:42.440Z,71.03
2018-12-18T10:00:11.118Z,70.76
2018-12-18T10:02:39.304Z,70.40
2018-12-18T10:05:07.454Z,70.96
2018-12-18T10:07:35.548Z,69.53
2018-12-18T10:10:04.519Z,70.02
2018-12-18T10:12:38.287Z,70.00
2018-12-18T10:15:07.002Z,69.57
2018-12-18T10:17:36.221Z,69.00
2018-12-18T10:20:05.504Z,68.75
2018-12-18T10:22:33.657Z,67.67
2018-12-18T10:25:01.795Z,67.74
2018-12-18T10:27:30.164Z,68.39
2018-12-18T10:29:58.568Z,66.86
2018-12-18T10:32:26.934Z,66.92
2018-12-18T10:34:55.085Z,66.98
2018-12-18T10:37:24.042Z,65.84
2018-12-18T10:39:52.572Z,66.21
2018-12-18T10:42:20.945Z,64.85
2018-12-18T10:44:49.059Z,63.23
2018-12-18T10:47:17.273Z,65.27
2018-12-18T10:49:45.477Z,64.90
2018-12-18T10:52:14.433Z,63.98
2018-12-18T10:54:42.787Z,63.34
2018-12-18T10:57:11.157Z,63.54
2018-12-18T10:59:39.574Z,61.88
2018-12-18T11:02:08.557Z,63.22
2018-12-18T11:04:36.812Z,62.25
2018-12-18T11:07:05.841Z,62.58
2018-12-18T11:09:34.075Z,62.27
2018-12-18T11:12:02.255Z,62.79
2018-12-18T11:14:30.596Z,61.29
2018-12-18T11:16:58.944Z,62.14
2018-12-18T11:19:27.154Z,61.71
2018-12-18T11:21:55.563Z,62.46
2018-12-18T11:24:23.776Z,61.94
2018-12-18T11:26:52.723Z,62.11
2018-12-18T11:29:21.387Z,62.31
2018-12-18T11:31:50.022Z,62.75
2018-12-18T11:34:18.281Z,63.64
2018-12-18T11:36:46.699Z,62.54
2018-12-18T11:39:15.036Z,62.65
2018-12-18T11:41:43.396Z,61.83
2018-12-18T11:44:11.715Z,62.75
2018-12-18T11:46:40.090Z,62.85
2018-12-18T11:49:08.289Z,59.87
2018-12-18T11:51:36.653Z,54.16
2018-12-18T11:54:04.815Z,47.65
2018-12-18T11:56:33.014Z,45.17
2018-12-18T11:59:01.310Z,44.98
2018-12-18T12:01:29.476Z,48.93
2018-12-18T12:03:57.815Z,49.81
2018-12-18T12:06:25.903Z,50.47
2018-12-18T12:08:54.116Z,51.79
2018-12-18T12:11:22.357Z,54.27
2018-12-18T12:13:50.630Z,58.32
2018-12-18T12:16:18.814Z,58.55
2018-12-18T12:18:47.137Z,59.87
2018-12-18T12:21:15.296Z,60.04
2018-12-18T12:23:43.532Z,60.29
2018-12-18T12:26:17.314Z,62.46
2018-12-18T12:28:45.669Z,62.66
2018-12-18T12:31:13.788Z,63.46
2018-12-18T12:33:41.981Z,63.21
2018-12-18T12:36:10.337Z,63.26
2018-12-18T12:38:38.442Z,64.41
2018-12-18T12:41:06.552Z,65.03
2018-12-18T12:43:34.891Z,65.54
2018-12-18T12:46:03.167Z,65.90
2018-12-18T12:48:36.950Z,65.61
2018-12-18T12:51:05.232Z,65.96
2018-12-18T12:53:33.439Z,66.11
2018-12-18T12:56:01.970Z,66.30
2018-12-18T12:58:30.304Z,65.81
2018-12-18T13:00:58.404Z,65.76
2018-12-18T13:03:26.679Z,66.38
2018-12-18T13:05:54.960Z,66.86
2018-12-18T13:08:23.168Z,67.43
2018-12-18T13:10:51.460Z,66.71
2018-12-18T13:13:19.560Z,66.72
2018-12-18T13:15:47.864Z,67.08
2018-12-18T13:18:16.176Z,66.56
2018-12-18T13:20:44.490Z,65.67
2018-12-18T13:23:12.624Z,65.31
2018-12-18T13:25:41.065Z,65.43
2018-12-18T13:28:09.555Z,65.42
2018-12-18T13:30:38.144Z,65.00
2018-12-18T13:33:06.313Z,65.24
2018-12-18T13:35:34.552Z,65.93
2018-12-18T13:38:02.953Z,65.58
2018-12-18T13:40:32.285Z,65.10
2018-12-18T13:43:00.972Z,66.38
2018-12-18T13:45:29.114Z,65.67
2018-12-18T13:47:57.305Z,65.78
2018-12-18T13:50:25.410Z,66.33
2018-12-18T13:52:53.578Z,66.78
2018-12-18T13:55:21.887Z,67.06
2018-12-18T13:57:50.096Z,67.73
2018-12-18T14:00:18.306Z,66.97
2018-12-18T14:02:46.428Z,66.45
2018-12-18T14:05:14.558Z,67.07
2018-12-18T14:07:42.680Z,67.38
2018-12-18T14:10:10.985Z,68.02
2018-12-18T14:12:39.131Z,67.74
2018-12-18T14:15:08.020Z,68.41
2018-12-18T14:17:36.114Z,69.27
2018-12-18T14:20:05.191Z,68.31
2018-12-18T14:22:33.282Z,68.46
2018-12-18T14:25:01.477Z,69.63
2018-12-18T14:27:29.608Z,69.21
2018-12-18T14:29:57.737Z,69.89
2018-12-18T14:32:25.855Z,70.44
2018-12-18T14:34:54.089Z,70.73
2018-12-18T14:37:22.298Z,70.37
2018-12-18T14:39:50.516Z,70.92
2018-12-18T14:42:18.683Z,71.42
2018-12-18T14:44:49.681Z,71.59
2018-12-18T14:47:18.525Z,72.46
2018-12-18T14:49:46.639Z,72.51
2018-12-18T14:52:15.448Z,72.97
2018-12-18T14:54:43.590Z,72.97
2018-12-18T14:57:11.744Z,73.30
2018-12-18T14:59:40.048Z,73.39
2018-12-18T15:02:08.202Z,73.50
2018-12-18T15:04:36.364Z,73.57
2018-12-18T15:07:04.493Z,73.39
2018-12-18T15:09:32.612Z,73.92
2018-12-18T15:12:00.892Z,73.61
2018-12-18T15:14:29.023Z,73.27
2018-12-18T15:16:57.165Z,73.62
2018-12-18T15:19:25.307Z,74.54
2018-12-18T15:21:53.405Z,74.40
2018-12-18T15:24:21.673Z,74.24
2018-12-18T15:26:49.807Z,74.91
2018-12-18T15:29:18.077Z,75.52
2018-12-18T15:31:46.175Z,75.88
2018-12-18T15:34:14.346Z,76.40
2018-12-18T15:36:42.517Z,76.16
2018-12-18T15:39:10.769Z,76.19
2018-12-18T15:41:38.967Z,76.55
2018-12-18T15:44:07.153Z,76.25
2018-12-18T15:46:35.384Z,77.18
2018-12-18T15:49:03.711Z,76.72
2018-12-18T15:51:31.851Z,77.32
2018-12-18T15:53:59.997Z,77.60
2018-12-18T15:56:28.109Z,77.50
2018-12-18T15:58:56.487Z,77.60
2018-12-18T16:01:24.650Z,77.78
2018-12-18T16:03:52.747Z,77.60
2018-12-18T16:06:22.352Z,76.19
2018-12-18T16:08:50.520Z,76.77
2018-12-18T16:11:18.654Z,76.66
2018-12-18T16:13:46.819Z,76.30
2018-12-18T16:16:15.125Z,76.11
2018-12-18T16:18:43.268Z,76.36
2018-12-18T16:21:11.432Z,76.68
2018-12-18T16:23:39.649Z,76.65
2018-12-18T16:26:07.816Z,76.20
2018-12-18T16:28:35.978Z,75.96
2018-12-18T16:31:04.316Z,75.34
2018-12-18T16:33:32.442Z,75.64
2018-12-18T16:36:00.612Z,74.83
2018-12-18T16:38:28.769Z,74.39
2018-12-18T16:40:57.022Z,75.06
2018-12-18T16:43:25.252Z,75.48
2018-12-18T16:45:53.437Z,76.16
2018-12-18T16:48:21.939Z,76.10
2018-12-18T16:50:50.362Z,74.63
2018-12-18T16:53:18.582Z,75.73
2018-12-18T16:55:46.967Z,76.31
2018-12-18T16:58:15.141Z,76.29
2018-12-18T17:00:44.207Z,76.42
2018-12-18T17:03:12.493Z,76.37
2018-12-18T17:05:40.764Z,76.61
2018-12-18T17:08:08.966Z,75.39
2018-12-18T17:10:37.565Z,75.29
2018-12-18T17:13:05.818Z,75.43
2018-12-18T17:15:33.996Z,75.97
2018-12-18T17:18:02.370Z,75.24
2018-12-18T17:20:30.537Z,75.67
2018-12-18T17:22:58.825Z,74.37
2018-12-18T17:25:27.015Z,73.70
2018-12-18T17:27:55.246Z,73.76
2018-12-18T17:30:23.531Z,74.03
2018-12-18T17:32:51.692Z,74.57
2018-12-18T17:35:19.898Z,73.85
2018-12-18T17:37:48.146Z,74.34
2018-12-18T17:40:17.060Z,74.54
2018-12-18T17:42:45.231Z,74.28
2018-12-18T17:45:13.459Z,74.48
2018-12-18T17:47:41.777Z,74.07
2018-12-18T17:50:09.931Z,74.14
2018-12-18T17:52:38.925Z,74.40
2018-12-18T17:55:07.683Z,74.36
2018-12-18T17:57:36.058Z,74.07
2018-12-18T18:00:04.705Z,74.69
2018-12-18T18:02:32.925Z,74.49
2018-12-18T18:05:01.110Z,75.08
2018-12-18T18:07:29.430Z,74.41
2018-12-18T18:09:57.786Z,74.93
2018-12-18T18:12:29.885Z,74.98
2018-12-18T18:14:56.402Z,74.72
2018-12-18T18:17:24.966Z,75.12
2018-12-18T18:19:53.455Z,74.95
2018-12-18T18:22:21.654Z,75.18
2018-12-18T18:24:49.827Z,74.52
2018-12-18T18:27:17.966Z,74.39
2018-12-18T18:29:46.328Z,74.98
2018-12-18T18:32:14.397Z,74.98
2018-12-18T18:34:42.796Z,75.56
2018-12-18T18:37:10.944Z,75.74
2018-12-18T18:39:39.221Z,75.36
2018-12-18T18:42:07.378Z,75.64
2018-12-18T18:44:35.707Z,76.22
2018-12-18T18:47:03.879Z,76.89
2018-12-18T18:49:32.207Z,76.56
2018-12-18T18:52:00.328Z,76.76
2018-12-18T18:54:28.710Z,76.18
2018-12-18T18:56:56.822Z,76.64
2018-12-18T18:59:25.158Z,76.96
2018-12-18T19:01:53.365Z,76.84
2018-12-18T19:04:22.014Z,77.38
2018-12-18T19:06:50.385Z,76.73
2018-12-18T19:09:18.581Z,76.86
2018-12-18T19:11:46.755Z,76.91
2018-12-18T19:14:15.012Z,77.02
2018-12-18T19:16:43.201Z,77.28
2018-12-18T19:19:11.513Z,77.02
2018-12-18T19:21:39.655Z,77.20
2018-12-18T19:24:07.828Z,77.39
2018-12-18T19:26:35.974Z,77.86
2018-12-18T19:29:04.352Z,78.26
2018-12-18T19:31:32.636Z,78.19
2018-12-18T19:34:00.833Z,78.45
2018-12-18T19:36:28.970Z,79.45
2018-12-18T19:38:57.882Z,78.34
2018-12-18T19:41:26.222Z,78.28
2018-12-18T19:43:54.334Z,79.30
2018-12-18T19:46:22.672Z,78.60
2018-12-18T19:48:52.080Z,78.92
2018-12-18T19:51:20.475Z,79.89
2018-12-18T19:53:48.641Z,79.50
2018-12-18T19:56:17.033Z,80.47
2018-12-18T19:58:45.740Z,79.79
2018-12-18T20:01:14.318Z,79.92
2018-12-18T20:03:42.471Z,80.38
2018-12-18T20:06:10.836Z,80.33
2018-12-18T20:08:39.039Z,80.03
2018-12-18T20:11:07.368Z,80.36
2018-12-18T20:13:35.548Z,80.99
2018-12-18T20:16:03.797Z,80.89
2018-12-18T20:18:32.158Z,81.33
2018-12-18T20:21:00.734Z,81.05
2018-12-18T20:23:29.184Z,80.95
2018-12-18T20:25:58.011Z,81.46
2018-12-18T20:28:26.088Z,81.51
2018-12-18T20:30:54.436Z,81.40
2018-12-18T20:33:22.595Z,81.05
2018-12-18T20:35:50.754Z,81.06
2018-12-18T20:38:18.914Z,81.35
2018-12-18T20:40:47.096Z,81.85
2018-12-18T20:43:15.330Z,81.34
2018-12-18T20:45:43.648Z,81.37
2018-12-18T20:48:11.729Z,81.00
2018-12-18T20:53:27.637Z,82.07
2018-12-18T20:55:55.987Z,81.61
2018-12-18T20:58:24.119Z,82.21
2018-12-18T21:00:52.263Z,81.76
2018-12-18T21:03:20.441Z,82.63
2018-12-18T21:05:49.817Z,81.83
2018-12-18T21:08:23.329Z,82.74
2018-12-18T21:10:48.294Z,82.36
2018-12-18T21:13:22.165Z,82.78
2018-12-18T21:15:50.623Z,82.88
2018-12-18T21:18:18.935Z,82.70
2018-12-18T21:20:47.328Z,83.48
2018-12-18T21:23:15.459Z,83.34
2018-12-18T21:25:43.681Z,83.52
2018-12-18T21:28:12.085Z,83.01
2018-12-18T21:30:40.436Z,83.69
2018-12-18T21:33:08.712Z,83.66
2018-12-18T21:35:37.203Z,83.98
2018-12-18T21:38:05.320Z,84.16
2018-12-18T21:40:33.495Z,84.10
2018-12-18T21:43:03.151Z,83.80
2018-12-18T21:45:31.488Z,83.53
2018-12-18T21:47:59.823Z,83.65
2018-12-18T21:50:28.154Z,84.51
2018-12-18T21:52:58.140Z,84.14
2018-12-18T21:55:26.490Z,83.95
2018-12-18T21:57:54.889Z,84.13
2018-12-18T22:00:23.171Z,83.61
2018-12-18T22:02:51.607Z,83.94
2018-12-18T22:05:20.152Z,83.89
2018-12-18T22:07:48.410Z,83.75
2018-12-18T22:10:16.603Z,84.10
2018-12-18T22:12:45.462Z,83.86
2018-12-18T22:15:13.676Z,84.68
2018-12-18T22:17:42.128Z,84.03
2018-12-18T22:20:10.330Z,84.07
2018-12-18T22:22:38.556Z,84.38
2018-12-18T22:25:06.700Z,84.00
2018-12-18T22:27:35.202Z,83.64
2018-12-18T22:30:04.541Z,84.24
2018-12-18T22:32:32.670Z,84.31
2018-12-18T22:35:00.976Z,84.37
2018-12-18T22:37:29.266Z,84.69
2018-12-18T22:39:57.478Z,85.20
2018-12-18T22:42:26.654Z,84.88
2018-12-18T22:44:55.188Z,84.97
2018-12-18T22:47:23.570Z,84.87
2018-12-18T22:49:51.742Z,85.86
2018-12-18T22:52:19.918Z,85.92
2018-12-18T22:54:48.004Z,85.82
2018-12-18T22:57:16.264Z,86.12
2018-12-18T22:59:44.456Z,86.17
2018-12-18T23:02:15.609Z,86.55
2018-12-18T23:04:45.186Z,86.54
2018-12-18T23:07:13.998Z,86.42
2018-12-18T23:09:42.201Z,86.79
2018-12-18T23:12:10.448Z,86.51
2018-12-18T23:14:38.681Z,87.17
2018-12-18T23:17:06.872Z,86.05
2018-12-18T23:19:35.044Z,86.25
2018-12-18T23:22:03.236Z,86.74
2018-12-18T23:24:31.428Z,86.40
2018-12-18T23:26:59.591Z,87.17
2018-12-18T23:29:27.752Z,86.76
2018-12-18T23:31:55.916Z,86.17
2018-12-18T23:34:24.259Z,85.90
2018-12-18T23:36:52.480Z,86.33
2018-12-18T23:39:20.666Z,86.54
2018-12-18T23:41:48.804Z,87.10
2018-12-18T23:44:17.044Z,87.48
2018-12-18T23:46:45.276Z,87.34
2018-12-18T23:49:13.638Z,87.11
2018-12-18T23:51:41.750Z,87.02
2018-12-18T23:54:09.960Z,86.62
2018-12-18T23:56:38.154Z,86.96
2018-12-18T23:59:06.436Z,86.51
